Terminal Aerodrome Forecast
Issued by NWS Cleveland, OH

Home | Current Version | Previous Version | Text Only | Print | Product List | Glossary On
Versions: 1 2 3 4 5 6 7 8 9 10 11 12 13 14 15 16 17 18 19 20 21 22 23
000
FTUS41 KCLE 030521
TAFERI
TAF
KERI 030521Z 0306/0406 00000KT 4SM BR OVC004
     FM030800 VRB02KT 1 1/2SM BR OVC004
     FM031000 VRB03KT 1 1/2SM BR OVC060
     FM031300 03004KT 4SM BR OVC060
     FM031400 01005KT P6SM BKN060
     FM040400 VRB03KT P6SM SCT250=

USA.gov is the U.S. government's official web portal to all federal, state and local government web resources and services.